Time;durP1;ratioP1;P1;durP2;ratioP2;P2;SDS_P1;SDS_P2;PMS_P1;PMS_P2;Temp;Humidity;BMP_temperature;BMP_pressure;BME280_temperature;BME280_humidity;BME280_pressure;Samples;Min_cycle;Max_cycle;Signal;HPM_P1;HPM_P2
2022/05/01 00:00:42;;;;;;;9.17;5.40;;;10.00;99.90;;;;;;4175651;28;20461;-81
2022/05/01 00:02:43;;;;;;;15.23;6.43;;;10.00;99.90;;;;;;4172746;28;20288;-81
2022/05/01 00:04:45;;;;;;;10.23;5.63;;;10.00;99.90;;;;;;4177030;28;20214;-80
2022/05/01 00:06:47;;;;;;;14.20;6.03;;;10.00;99.90;;;;;;4172233;28;20211;-80
2022/05/01 00:08:49;;;;;;;13.37;6.93;;;9.90;99.90;;;;;;4170654;28;20214;-80
2022/05/01 00:10:51;;;;;;;12.47;6.57;;;9.90;99.90;;;;;;4172420;28;20477;-80
2022/05/01 00:12:54;;;;;;;12.67;6.37;;;9.80;99.90;;;;;;4175706;28;20234;-80
2022/05/01 00:14:55;;;;;;;13.10;6.57;;;9.80;99.90;;;;;;4180317;28;20216;-80
2022/05/01 00:16:57;;;;;;;12.60;6.90;;;9.80;99.90;;;;;;4176658;28;20206;-80
2022/05/01 00:18:59;;;;;;;13.83;6.10;;;9.70;99.90;;;;;;4175176;28;20973;-80
2022/05/01 00:21:01;;;;;;;11.73;6.10;;;9.70;99.90;;;;;;4175479;28;20511;-80
2022/05/01 00:23:03;;;;;;;8.50;5.90;;;9.60;99.90;;;;;;4174296;28;20234;-80
2022/05/01 00:25:06;;;;;;;7.47;4.77;;;9.60;99.90;;;;;;4172659;28;20485;-80
2022/05/01 00:27:12;;;;;;;12.37;5.00;;;9.60;99.90;;;;;;4173040;28;20623;-80
2022/05/01 00:29:15;;;;;;;11.77;5.60;;;9.60;99.90;;;;;;4168462;28;20470;-80
2022/05/01 00:31:19;;;;;;;13.10;5.20;;;9.50;99.90;;;;;;4175843;28;20461;-80
2022/05/01 00:38:00;;;;;;;9.10;5.30;;;9.50;99.90;;;;;;4172782;28;20890;-80
2022/05/01 00:40:01;;;;;;;8.80;5.00;;;9.40;99.90;;;;;;4177663;28;20458;-80
2022/05/01 00:42:04;;;;;;;10.73;5.30;;;9.40;99.90;;;;;;4177639;28;20832;-80
2022/05/01 00:44:08;;;;;;;9.80;5.17;;;9.40;99.90;;;;;;4174687;28;20725;-80
2022/05/01 00:46:11;;;;;;;12.30;5.37;;;9.40;99.90;;;;;;4178735;28;20503;-80
2022/05/01 00:48:13;;;;;;;11.43;5.40;;;9.30;99.90;;;;;;4171198;28;20508;-80
2022/05/01 00:50:16;;;;;;;10.73;5.10;;;9.40;99.90;;;;;;4172582;28;20627;-80
2022/05/01 00:52:19;;;;;;;10.70;4.67;;;9.40;99.90;;;;;;4180329;28;20518;-80
2022/05/01 00:54:23;;;;;;;12.77;5.27;;;9.20;99.90;;;;;;4175265;28;20829;-80
2022/05/01 00:56:25;;;;;;;8.80;5.17;;;9.30;99.90;;;;;;4177281;28;20445;-80
2022/05/01 00:58:27;;;;;;;8.70;4.70;;;9.20;99.90;;;;;;4177232;28;20494;-80
2022/05/01 01:00:29;;;;;;;8.97;4.47;;;9.90;99.90;;;;;;4177270;28;20465;-80
2022/05/01 01:02:33;;;;;;;8.60;4.53;;;9.20;99.90;;;;;;4181961;28;20505;-80
2022/05/01 01:04:35;;;;;;;10.33;5.10;;;9.40;99.90;;;;;;4185056;28;20958;-80
2022/05/01 01:06:37;;;;;;;8.80;4.87;;;9.20;99.90;;;;;;4186905;28;20483;-80
2022/05/01 01:08:39;;;;;;;12.60;5.07;;;9.10;99.90;;;;;;4184855;28;20460;-80
2022/05/01 01:10:40;;;;;;;9.00;4.63;;;9.10;99.90;;;;;;4181137;28;20469;-80
2022/05/01 01:12:54;;;;;;;10.17;4.80;;;9.10;99.90;;;;;;4178460;28;20500;-80
2022/05/01 01:14:56;;;;;;;9.63;4.67;;;9.00;99.90;;;;;;4172678;28;20448;-80
2022/05/01 01:16:58;;;;;;;10.97;4.30;;;9.00;99.90;;;;;;4178074;28;20531;-80
2022/05/01 01:19:02;;;;;;;13.60;4.97;;;9.00;99.90;;;;;;4169136;28;20536;-80
2022/05/01 01:21:07;;;;;;;9.37;4.83;;;9.00;99.90;;;;;;4166662;28;20472;-80
2022/05/01 01:23:09;;;;;;;9.37;4.70;;;8.90;99.90;;;;;;4171179;28;20489;-82
2022/05/01 01:25:12;;;;;;;9.50;4.23;;;8.90;99.90;;;;;;4180372;28;20467;-81
2022/05/01 01:27:15;;;;;;;10.47;4.70;;;8.90;99.90;;;;;;4176497;28;20473;-80
2022/05/01 01:31:43;;;;;;;9.27;4.30;;;9.10;99.90;;;;;;4176606;28;20803;-81
2022/05/01 01:33:46;;;;;;;10.60;4.53;;;8.80;99.90;;;;;;4177143;28;20469;-81
2022/05/01 01:35:51;;;;;;;8.20;4.83;;;8.80;99.90;;;;;;4179881;28;20512;-82
2022/05/01 01:37:55;;;;;;;12.13;4.77;;;8.80;99.90;;;;;;4179505;28;20458;-82
2022/05/01 01:39:59;;;;;;;10.43;4.13;;;8.70;99.90;;;;;;4178503;28;20496;-82
2022/05/01 01:42:07;;;;;;;8.77;4.67;;;8.70;99.90;;;;;;4180027;28;20477;-82
2022/05/01 01:44:09;;;;;;;10.97;4.93;;;8.70;99.90;;;;;;4177760;28;20556;-82
2022/05/01 01:46:11;;;;;;;8.73;4.70;;;9.20;99.90;;;;;;4172487;28;20473;-82
2022/05/01 01:48:14;;;;;;;11.23;5.00;;;8.70;99.90;;;;;;4175233;28;20464;-82
2022/05/01 01:50:17;;;;;;;8.20;4.30;;;8.60;99.90;;;;;;4173395;28;20488;-81
2022/05/01 01:52:19;;;;;;;8.47;4.60;;;8.60;99.90;;;;;;4182245;28;21018;-81
2022/05/01 01:54:22;;;;;;;8.80;4.67;;;8.60;99.90;;;;;;4180000;28;20519;-79
2022/05/01 01:56:24;;;;;;;10.20;4.53;;;8.60;99.90;;;;;;4170604;28;20446;-79
2022/05/01 01:58:26;;;;;;;9.67;4.10;;;8.60;99.90;;;;;;4167754;28;20469;-81
2022/05/01 02:00:28;;;;;;;8.80;4.87;;;8.60;99.90;;;;;;4171856;28;20461;-80
2022/05/01 02:02:30;;;;;;;11.33;4.60;;;8.50;99.90;;;;;;4170669;28;20875;-79
2022/05/01 02:04:32;;;;;;;8.77;4.30;;;8.50;99.90;;;;;;4175477;28;20464;-79
2022/05/01 02:06:34;;;;;;;8.17;4.43;;;8.50;99.90;;;;;;4173933;28;20480;-80
2022/05/01 02:08:40;;;;;;;9.90;4.67;;;8.50;99.90;;;;;;4172697;28;20897;-80
2022/05/01 02:10:44;;;;;;;8.83;4.37;;;8.50;99.90;;;;;;4173169;28;20558;-80
2022/05/01 02:12:46;;;;;;;8.47;4.17;;;8.40;99.90;;;;;;4171896;28;21026;-81
2022/05/01 02:14:48;;;;;;;10.43;4.13;;;8.40;99.90;;;;;;4177551;28;20456;-79
2022/05/01 02:16:50;;;;;;;11.60;4.70;;;8.40;99.90;;;;;;4171977;28;20456;-82
2022/05/01 02:18:52;;;;;;;10.37;4.17;;;8.40;99.90;;;;;;4170474;28;20457;-79
2022/05/01 02:23:13;;;;;;;7.77;4.33;;;8.30;99.90;;;;;;4168278;28;20507;-80
2022/05/01 02:25:15;;;;;;;9.30;4.50;;;8.30;99.90;;;;;;4169896;28;20469;-80
2022/05/01 02:27:18;;;;;;;8.10;4.07;;;8.30;99.90;;;;;;4170214;28;20465;-80
2022/05/01 02:29:20;;;;;;;6.83;3.87;;;8.30;99.90;;;;;;4169732;28;20469;-79
2022/05/01 02:31:22;;;;;;;8.57;4.07;;;8.20;99.90;;;;;;4170891;28;20467;-79
2022/05/01 02:33:25;;;;;;;6.93;3.57;;;8.20;99.90;;;;;;4170913;28;20511;-80
2022/05/01 02:35:26;;;;;;;10.90;4.37;;;8.20;99.90;;;;;;4172138;28;20495;-81
2022/05/01 02:37:28;;;;;;;6.03;3.97;;;8.20;99.90;;;;;;4180631;28;20518;-81
2022/05/01 02:39:30;;;;;;;8.63;3.43;;;8.20;99.90;;;;;;4181682;28;20493;-80
2022/05/01 02:41:32;;;;;;;6.57;3.80;;;8.20;99.90;;;;;;4175703;28;21057;-81
2022/05/01 02:43:35;;;;;;;8.37;3.33;;;8.10;99.90;;;;;;4172260;28;20480;-81
2022/05/01 02:45:38;;;;;;;9.37;3.47;;;8.10;99.90;;;;;;4173154;28;20526;-81
2022/05/01 02:47:40;;;;;;;6.57;3.40;;;8.10;99.90;;;;;;4171304;28;20463;-81
2022/05/01 02:49:42;;;;;;;9.50;3.47;;;8.10;99.90;;;;;;4174351;28;20547;-82
2022/05/01 02:51:44;;;;;;;8.20;3.40;;;8.70;99.90;;;;;;4174343;28;20473;-82
2022/05/01 02:53:46;;;;;;;6.67;3.33;;;8.10;99.90;;;;;;4175866;28;21040;-80
2022/05/01 02:55:47;;;;;;;8.40;3.73;;;8.10;99.90;;;;;;4173407;28;20864;-80
2022/05/01 02:57:49;;;;;;;5.43;3.53;;;8.10;99.90;;;;;;4175159;28;20971;-81
2022/05/01 02:59:54;;;;;;;6.60;3.70;;;7.90;99.90;;;;;;4174318;28;20860;-81
2022/05/01 03:01:56;;;;;;;5.67;3.10;;;8.00;99.90;;;;;;4171176;28;20519;-82
2022/05/01 03:03:58;;;;;;;7.00;3.63;;;8.00;99.90;;;;;;4181004;28;20467;-81
2022/05/01 03:06:00;;;;;;;5.87;3.07;;;8.00;99.90;;;;;;4169730;28;20461;-80
2022/05/01 03:08:02;;;;;;;7.30;3.63;;;8.00;99.90;;;;;;4172464;28;20466;-81
2022/05/01 03:10:04;;;;;;;6.77;2.77;;;8.20;99.90;;;;;;4171922;28;20940;-80
2022/05/01 03:12:07;;;;;;;6.87;3.30;;;8.00;99.90;;;;;;4175752;28;20894;-81
2022/05/01 03:14:10;;;;;;;7.47;3.60;;;8.00;99.90;;;;;;4177679;28;20526;-81
2022/05/01 03:16:13;;;;;;;5.80;3.23;;;7.90;99.90;;;;;;4181548;28;20903;-81
2022/05/01 03:22:53;;;;;;;6.90;3.23;;;7.90;99.90;;;;;;4177592;28;20469;-81
2022/05/01 03:24:55;;;;;;;6.33;3.43;;;7.80;99.90;;;;;;4177550;28;20992;-81
2022/05/01 03:26:57;;;;;;;6.80;2.80;;;7.80;99.90;;;;;;4178444;28;20537;-82
2022/05/01 03:28:59;;;;;;;6.70;3.30;;;7.80;99.90;;;;;;4175448;28;20845;-81
2022/05/01 03:31:01;;;;;;;6.13;3.10;;;8.30;99.90;;;;;;4177339;28;20465;-82
2022/05/01 03:33:07;;;;;;;8.17;3.20;;;7.80;99.90;;;;;;4177437;28;20490;-81
2022/05/01 03:35:08;;;;;;;8.00;3.80;;;7.80;99.90;;;;;;4182255;28;20468;-81
2022/05/01 03:37:11;;;;;;;6.30;3.57;;;7.80;99.90;;;;;;4175716;28;20530;-81
2022/05/01 03:39:13;;;;;;;5.97;3.20;;;7.80;99.90;;;;;;4180429;28;20464;-81
2022/05/01 03:41:17;;;;;;;7.23;3.47;;;7.70;99.90;;;;;;4176614;28;20614;-81
2022/05/01 03:43:18;;;;;;;5.83;3.53;;;7.70;99.90;;;;;;4179121;28;21031;-81
2022/05/01 03:45:20;;;;;;;11.00;3.30;;;7.70;99.90;;;;;;4176016;28;20527;-81
2022/05/01 03:47:22;;;;;;;6.67;3.20;;;7.70;99.90;;;;;;4175672;28;20960;-82
2022/05/01 03:49:25;;;;;;;5.40;3.10;;;7.70;99.90;;;;;;4178694;28;20863;-82
2022/05/01 03:51:27;;;;;;;6.97;3.60;;;7.70;99.90;;;;;;4184619;28;20460;-81
2022/05/01 03:53:30;;;;;;;7.73;3.27;;;7.70;99.90;;;;;;4185870;28;20512;-81
2022/05/01 03:55:33;;;;;;;7.10;3.53;;;7.70;99.90;;;;;;4187444;28;20501;-82
2022/05/01 03:57:35;;;;;;;8.23;3.30;;;7.70;99.90;;;;;;4182329;28;20462;-81
2022/05/01 03:59:37;;;;;;;8.40;3.57;;;7.70;99.90;;;;;;4179806;28;20464;-82
2022/05/01 04:01:39;;;;;;;7.83;3.70;;;8.20;99.90;;;;;;4185250;28;20465;-82
2022/05/01 04:03:41;;;;;;;6.90;3.23;;;7.80;99.90;;;;;;4186732;28;20482;-81
2022/05/01 04:05:44;;;;;;;8.27;3.40;;;7.80;99.90;;;;;;4190787;28;20523;-81
2022/05/01 04:07:46;;;;;;;7.73;3.80;;;7.80;99.90;;;;;;4187005;28;20557;-82
2022/05/01 04:09:48;;;;;;;4.60;2.73;;;7.80;99.90;;;;;;4190233;28;20488;-81
2022/05/01 04:11:50;;;;;;;4.53;2.87;;;7.90;99.90;;;;;;4191731;28;20496;-81
2022/05/01 04:13:52;;;;;;;7.33;3.40;;;7.90;99.90;;;;;;4189627;28;20552;-82
2022/05/01 04:15:54;;;;;;;5.70;2.97;;;7.90;99.90;;;;;;4192032;28;20504;-83
2022/05/01 04:17:56;;;;;;;6.17;3.43;;;7.90;99.90;;;;;;4192943;28;20838;-82
2022/05/01 04:19:57;;;;;;;5.90;3.20;;;8.00;99.90;;;;;;4185086;28;20477;-82
2022/05/01 04:22:01;;;;;;;5.83;3.37;;;8.00;99.90;;;;;;4183566;28;20457;-81
2022/05/01 04:24:02;;;;;;;5.60;3.30;;;8.10;99.90;;;;;;4189123;28;20492;-81
2022/05/01 04:26:04;;;;;;;7.73;3.37;;;8.10;99.90;;;;;;4197119;28;20468;-81
2022/05/01 04:28:08;;;;;;;6.23;3.50;;;8.10;99.90;;;;;;4190873;28;20481;-82
2022/05/01 04:30:12;;;;;;;5.63;3.33;;;8.10;99.90;;;;;;4183840;28;20474;-81
2022/05/01 04:32:16;;;;;;;5.10;3.00;;;8.20;99.90;;;;;;4187588;28;20500;-82
2022/05/01 04:34:18;;;;;;;8.77;2.73;;;8.10;99.90;;;;;;4192910;28;20508;-81
2022/05/01 04:36:20;;;;;;;7.33;3.20;;;8.30;99.90;;;;;;4189910;28;20466;-81
2022/05/01 04:38:26;;;;;;;6.33;3.20;;;8.30;99.90;;;;;;4192676;28;20504;-81
2022/05/01 04:40:28;;;;;;;6.60;3.60;;;8.10;99.90;;;;;;4192230;28;20523;-81
2022/05/01 04:42:30;;;;;;;8.53;3.47;;;8.40;99.90;;;;;;4188170;28;20495;-81
2022/05/01 04:44:31;;;;;;;4.57;3.13;;;8.40;99.90;;;;;;4192439;28;21329;-81
2022/05/01 04:46:33;;;;;;;6.67;3.50;;;8.40;99.90;;;;;;4188822;28;20947;-81
2022/05/01 04:48:35;;;;;;;5.80;3.27;;;8.50;99.90;;;;;;4185173;28;20481;-81
2022/05/01 04:50:37;;;;;;;8.87;3.30;;;8.50;99.90;;;;;;4190426;28;20457;-81
2022/05/01 04:52:39;;;;;;;5.00;3.20;;;8.60;99.90;;;;;;4184540;28;20480;-82
2022/05/01 04:54:42;;;;;;;5.77;3.40;;;8.60;99.90;;;;;;4190494;28;20509;-81
2022/05/01 04:59:07;;;;;;;8.07;3.53;;;8.70;99.90;;;;;;4189910;28;20463;-81
2022/05/01 05:01:09;;;;;;;5.63;2.93;;;8.70;99.90;;;;;;4189276;28;20515;-81
2022/05/01 05:03:13;;;;;;;6.77;3.40;;;8.80;99.90;;;;;;4190921;28;20476;-82
2022/05/01 05:05:15;;;;;;;9.30;3.47;;;8.80;99.90;;;;;;4190175;28;20495;-81
2022/05/01 05:07:17;;;;;;;10.10;3.50;;;8.90;99.90;;;;;;4181943;28;20481;-80
2022/05/01 05:11:39;;;;;;;6.23;3.00;;;9.00;99.90;;;;;;4189163;28;20447;-81
2022/05/01 05:13:41;;;;;;;6.03;3.23;;;9.00;99.90;;;;;;4190849;28;20480;-80
2022/05/01 05:15:43;;;;;;;7.77;3.57;;;9.10;99.90;;;;;;4193717;28;20529;-81
2022/05/01 05:17:45;;;;;;;6.20;3.30;;;9.10;99.90;;;;;;4191251;28;20453;-81
2022/05/01 05:19:47;;;;;;;6.13;3.50;;;9.20;99.90;;;;;;4194682;28;20466;-81
2022/05/01 05:21:49;;;;;;;9.03;3.37;;;9.20;99.90;;;;;;4186032;28;20480;-81
2022/05/01 05:23:51;;;;;;;5.10;3.33;;;9.30;99.90;;;;;;4185315;28;20484;-81
2022/05/01 05:25:52;;;;;;;5.97;3.03;;;9.30;99.90;;;;;;4178594;28;20238;-81
2022/05/01 05:27:55;;;;;;;12.80;3.57;;;9.30;99.90;;;;;;4175167;28;20523;-81
2022/05/01 05:29:58;;;;;;;4.97;3.10;;;9.40;99.90;;;;;;4178400;28;20839;-81
2022/05/01 05:32:00;;;;;;;7.63;3.50;;;9.50;99.90;;;;;;4179185;28;20449;-81
2022/05/01 05:34:02;;;;;;;5.90;3.30;;;9.50;99.90;;;;;;4178932;28;20496;-81
2022/05/01 05:36:04;;;;;;;6.23;3.63;;;9.60;99.90;;;;;;4178275;28;20524;-81
2022/05/01 05:38:06;;;;;;;5.43;3.40;;;9.60;99.90;;;;;;4176886;28;20462;-81
2022/05/01 05:40:09;;;;;;;6.17;3.23;;;9.70;99.90;;;;;;4178895;28;20461;-81
2022/05/01 05:42:11;;;;;;;8.17;3.57;;;9.80;99.90;;;;;;4173473;28;20261;-81
2022/05/01 05:44:14;;;;;;;7.07;3.20;;;9.80;99.90;;;;;;4175337;28;20209;-81
2022/05/01 05:46:17;;;;;;;7.57;3.43;;;9.90;99.90;;;;;;4171130;28;20273;-81
2022/05/01 05:48:19;;;;;;;7.23;3.47;;;9.90;99.90;;;;;;4179937;28;20256;-81
2022/05/01 05:50:21;;;;;;;10.03;3.90;;;10.00;99.90;;;;;;4174221;28;20638;-81
2022/05/01 05:52:22;;;;;;;7.47;3.67;;;10.00;99.90;;;;;;4169414;28;20211;-81
2022/05/01 05:54:24;;;;;;;7.57;3.57;;;10.10;99.90;;;;;;4174706;28;20237;-81
2022/05/01 05:56:26;;;;;;;7.30;3.57;;;10.20;99.90;;;;;;4171870;28;20219;-81
2022/05/01 05:58:28;;;;;;;8.20;3.90;;;10.20;99.90;;;;;;4171379;28;20237;-81
2022/05/01 06:00:31;;;;;;;10.30;3.97;;;10.30;99.90;;;;;;4178275;28;20269;-81
2022/05/01 06:02:33;;;;;;;7.90;3.80;;;10.90;99.90;;;;;;4175106;28;20245;-81
2022/05/01 06:04:36;;;;;;;7.27;3.33;;;10.80;99.90;;;;;;4178226;28;20562;-81
2022/05/01 06:06:38;;;;;;;9.67;4.47;;;10.50;99.90;;;;;;4172196;28;20219;-81
2022/05/01 06:08:39;;;;;;;9.47;4.80;;;10.60;99.90;;;;;;4176108;28;20212;-81
2022/05/01 06:10:41;;;;;;;9.23;4.50;;;10.70;99.90;;;;;;4175933;28;20203;-81
2022/05/01 06:12:43;;;;;;;9.03;3.80;;;10.70;99.90;;;;;;4168200;28;20243;-81
2022/05/01 06:14:45;;;;;;;6.37;3.47;;;10.80;99.90;;;;;;4167440;28;20234;-81
2022/05/01 06:16:48;;;;;;;4.90;3.47;;;10.80;99.90;;;;;;4169812;28;20216;-81
2022/05/01 06:18:50;;;;;;;7.60;3.90;;;10.90;99.90;;;;;;4174104;28;20266;-81
2022/05/01 06:20:53;;;;;;;9.77;4.37;;;10.90;99.90;;;;;;4169513;28;20593;-81
2022/05/01 06:22:56;;;;;;;6.17;3.30;;;11.00;99.90;;;;;;4175920;28;20666;-81
2022/05/01 06:24:58;;;;;;;5.57;3.50;;;11.10;99.90;;;;;;4171553;28;20232;-81
2022/05/01 06:27:00;;;;;;;6.97;3.47;;;11.20;99.90;;;;;;4172785;28;20222;-81
2022/05/01 06:29:01;;;;;;;9.10;3.83;;;11.40;99.90;;;;;;4174345;28;20227;-81
2022/05/01 06:31:04;;;;;;;7.57;3.73;;;11.30;99.90;;;;;;4172590;28;20208;-81
2022/05/01 06:33:09;;;;;;;7.27;3.80;;;11.30;99.90;;;;;;4177631;28;20582;-81
2022/05/01 06:35:12;;;;;;;10.80;4.00;;;11.40;99.90;;;;;;4177514;28;20848;-81
2022/05/01 06:37:14;;;;;;;9.37;4.27;;;11.50;99.90;;;;;;4174350;28;20686;-81
2022/05/01 06:39:16;;;;;;;12.83;7.03;;;11.50;99.90;;;;;;4174253;28;20674;-81
2022/05/01 06:41:19;;;;;;;11.20;4.53;;;11.60;99.90;;;;;;4170578;28;20222;-81
2022/05/01 06:43:20;;;;;;;6.87;4.10;;;11.70;99.90;;;;;;4173172;28;20228;-81
2022/05/01 06:45:22;;;;;;;10.50;4.43;;;11.70;99.90;;;;;;4178013;28;20207;-81
2022/05/01 06:47:24;;;;;;;7.17;3.50;;;11.80;99.90;;;;;;4174916;28;20609;-81
2022/05/01 06:49:27;;;;;;;9.87;4.10;;;11.80;99.90;;;;;;4177602;28;20217;-81
2022/05/01 06:51:29;;;;;;;7.37;4.13;;;11.80;99.90;;;;;;4179528;28;20265;-81
2022/05/01 06:53:31;;;;;;;7.80;4.30;;;11.90;99.90;;;;;;4181494;28;20262;-81
2022/05/01 06:55:34;;;;;;;7.40;3.80;;;12.00;99.90;;;;;;4179888;28;20213;-81
2022/05/01 06:57:35;;;;;;;6.20;3.87;;;12.00;99.90;;;;;;4177949;28;20267;-81
2022/05/01 06:59:37;;;;;;;9.63;3.83;;;12.10;99.90;;;;;;4178090;28;20217;-81
2022/05/01 07:01:39;;;;;;;9.63;3.97;;;12.20;99.90;;;;;;4179479;28;20613;-81
2022/05/01 07:03:42;;;;;;;7.50;4.13;;;12.20;99.90;;;;;;4179752;28;20230;-81
2022/05/01 07:05:45;;;;;;;6.97;3.63;;;12.20;99.90;;;;;;4179041;28;20238;-81
2022/05/01 07:07:48;;;;;;;14.53;4.60;;;12.30;99.90;;;;;;4179430;28;20223;-81
2022/05/01 07:09:51;;;;;;;10.73;4.40;;;12.40;99.90;;;;;;4182075;28;20209;-81
2022/05/01 07:11:54;;;;;;;10.00;4.67;;;12.40;99.90;;;;;;4178209;28;20240;-81
2022/05/01 07:13:55;;;;;;;7.87;4.00;;;12.50;99.90;;;;;;4183894;28;20300;-81
2022/05/01 07:15:57;;;;;;;7.17;3.77;;;12.60;99.90;;;;;;4181935;28;20214;-81
2022/05/01 07:17:59;;;;;;;6.67;3.80;;;12.60;99.90;;;;;;4181572;28;20245;-81
2022/05/01 07:20:02;;;;;;;9.13;4.57;;;12.70;99.90;;;;;;4178962;28;20217;-81
2022/05/01 07:22:06;;;;;;;9.87;4.27;;;12.80;99.90;;;;;;4180490;28;20216;-81
2022/05/01 07:24:08;;;;;;;8.43;4.37;;;12.80;99.90;;;;;;4178661;28;20202;-81
2022/05/01 07:26:10;;;;;;;9.27;4.30;;;12.90;99.30;;;;;;4177649;28;20214;-81
2022/05/01 07:28:11;;;;;;;6.57;4.00;;;12.90;97.70;;;;;;4179640;28;20652;-81
2022/05/01 07:30:14;;;;;;;10.03;4.20;;;13.00;96.60;;;;;;4177221;28;20207;-82
2022/05/01 07:32:16;;;;;;;7.67;4.30;;;13.00;95.60;;;;;;4177021;28;20873;-81
2022/05/01 07:34:18;;;;;;;10.93;4.30;;;13.10;95.40;;;;;;4179870;28;20287;-81
2022/05/01 07:36:20;;;;;;;9.97;4.07;;;13.20;94.70;;;;;;4181213;28;20690;-82
2022/05/01 07:38:23;;;;;;;10.97;4.70;;;13.20;94.30;;;;;;4177858;28;20921;-81
2022/05/01 07:40:25;;;;;;;7.90;4.37;;;13.20;94.30;;;;;;4179259;28;20214;-81
2022/05/01 07:42:26;;;;;;;8.67;4.13;;;13.30;93.50;;;;;;4176690;28;20687;-81
2022/05/01 07:44:28;;;;;;;8.03;4.23;;;13.40;93.60;;;;;;4172560;28;20722;-81
2022/05/01 07:46:30;;;;;;;6.33;3.73;;;13.60;93.30;;;;;;4178574;28;20266;-81
2022/05/01 07:48:32;;;;;;;7.73;4.10;;;13.50;93.70;;;;;;4175528;28;20207;-81
2022/05/01 07:50:33;;;;;;;11.93;4.60;;;13.60;92.90;;;;;;4179003;28;20211;-81
2022/05/01 07:52:35;;;;;;;7.40;3.60;;;13.60;92.70;;;;;;4176106;28;20239;-81
2022/05/01 07:54:38;;;;;;;10.50;4.20;;;13.70;91.70;;;;;;4177341;28;20260;-81
2022/05/01 07:56:40;;;;;;;8.87;3.97;;;13.70;90.70;;;;;;4172402;28;20656;-81
2022/05/01 07:58:42;;;;;;;9.80;4.37;;;13.80;90.70;;;;;;4175883;28;20616;-81
2022/05/01 08:00:44;;;;;;;7.53;4.23;;;13.90;90.40;;;;;;4178130;28;20612;-81
2022/05/01 08:05:06;;;;;;;10.27;4.57;;;14.00;88.80;;;;;;4177171;28;20722;-80
2022/05/01 08:07:08;;;;;;;12.80;4.90;;;14.00;88.20;;;;;;4176914;28;20275;-80
2022/05/01 08:09:09;;;;;;;9.20;4.10;;;14.00;86.30;;;;;;4176333;28;20679;-80
2022/05/01 08:11:13;;;;;;;7.93;4.27;;;14.10;86.30;;;;;;4175099;28;20210;-80
2022/05/01 08:13:15;;;;;;;8.30;4.13;;;14.10;84.70;;;;;;4172216;28;20234;-80
2022/05/01 08:15:18;;;;;;;10.43;4.50;;;14.10;84.30;;;;;;4177994;28;20715;-80
2022/05/01 08:17:19;;;;;;;12.27;4.13;;;14.20;81.90;;;;;;4180473;28;20207;-80
2022/05/01 08:21:41;;;;;;;5.47;3.90;;;14.20;78.60;;;;;;4177626;28;20213;-80
2022/05/01 08:23:43;;;;;;;8.90;3.90;;;14.20;79.00;;;;;;4177069;28;20739;-80
2022/05/01 08:25:44;;;;;;;8.33;3.90;;;14.20;79.90;;;;;;4183263;28;20231;-80
2022/05/01 08:27:47;;;;;;;12.63;4.70;;;14.30;81.50;;;;;;4175662;28;20234;-80
2022/05/01 08:29:49;;;;;;;9.83;4.63;;;14.30;82.20;;;;;;4183292;28;20230;-80
2022/05/01 08:31:51;;;;;;;7.80;3.90;;;14.30;81.30;;;;;;4174295;28;20215;-80
2022/05/01 08:33:54;;;;;;;8.33;3.93;;;14.30;84.00;;;;;;4171064;28;20262;-80
2022/05/01 08:35:56;;;;;;;7.60;4.60;;;14.30;86.70;;;;;;4176089;28;20280;-80
2022/05/01 08:37:58;;;;;;;9.03;4.30;;;14.40;84.80;;;;;;4176194;28;20229;-80
2022/05/01 08:39:59;;;;;;;9.83;4.63;;;14.40;85.00;;;;;;4188044;28;20257;-80
2022/05/01 08:42:04;;;;;;;9.43;4.23;;;14.40;83.90;;;;;;4187877;28;20215;-80
2022/05/01 08:44:13;;;;;;;8.23;4.60;;;14.40;83.40;;;;;;4185041;28;20213;-80
2022/05/01 08:46:32;;;;;;;8.07;4.57;;;14.40;81.70;;;;;;4187584;28;20238;-80
2022/05/01 08:48:40;;;;;;;9.73;4.67;;;14.50;79.00;;;;;;4180993;28;20774;-74
2022/05/01 08:50:43;;;;;;;9.00;4.33;;;14.50;78.50;;;;;;4161325;28;20216;-76
2022/05/01 08:52:46;;;;;;;9.93;4.87;;;14.40;78.50;;;;;;4162298;28;20230;-74
2022/05/01 08:54:49;;;;;;;10.67;5.00;;;14.50;79.20;;;;;;4183498;28;20230;-81
2022/05/01 08:56:50;;;;;;;7.60;4.50;;;14.50;77.60;;;;;;4183552;28;20247;-81
2022/05/01 08:58:53;;;;;;;14.23;4.87;;;14.60;77.70;;;;;;4188006;28;20225;-81
2022/05/01 09:00:58;;;;;;;9.53;4.10;;;14.70;78.40;;;;;;4187450;28;20223;-81
2022/05/01 09:03:00;;;;;;;10.23;4.80;;;14.60;79.40;;;;;;4186606;28;20241;-83
2022/05/01 09:05:05;;;;;;;11.03;4.43;;;14.70;79.50;;;;;;4187171;28;20326;-80
2022/05/01 09:07:07;;;;;;;8.20;4.60;;;14.70;79.10;;;;;;4187107;28;20207;-81
2022/05/01 09:09:10;;;;;;;8.87;4.60;;;14.70;77.40;;;;;;4185798;28;20216;-81
2022/05/01 09:13:31;;;;;;;11.37;4.70;;;14.80;76.70;;;;;;4187298;28;20249;-81
2022/05/01 09:15:40;;;;;;;8.97;4.70;;;14.90;78.00;;;;;;4185510;28;20230;-81
2022/05/01 09:18:03;;;;;;;10.30;4.67;;;14.90;76.70;;;;;;4184269;28;20217;-81
2022/05/01 09:20:10;;;;;;;11.53;4.77;;;15.00;73.50;;;;;;4181900;28;20211;-81
2022/05/01 09:22:13;;;;;;;7.93;4.30;;;15.00;72.60;;;;;;4179532;28;20220;-82
2022/05/01 09:24:14;;;;;;;8.43;4.63;;;15.00;74.00;;;;;;4181005;28;20514;-82
2022/05/01 09:26:18;;;;;;;8.17;4.30;;;15.10;71.30;;;;;;4183351;28;20751;-82
2022/05/01 09:28:22;;;;;;;7.90;4.30;;;15.00;71.20;;;;;;4185191;28;20215;-82
2022/05/01 09:30:32;;;;;;;9.07;4.30;;;15.20;70.90;;;;;;4183681;28;20574;-82
2022/05/01 09:32:38;;;;;;;9.37;4.30;;;15.30;71.30;;;;;;4182063;28;20665;-83
2022/05/01 09:34:43;;;;;;;6.40;4.20;;;15.40;71.10;;;;;;4183084;28;20754;-81
2022/05/01 09:36:44;;;;;;;7.13;4.47;;;15.50;69.90;;;;;;4181954;28;20222;-82
2022/05/01 09:39:03;;;;;;;8.13;4.53;;;15.50;67.60;;;;;;4187413;28;20212;-82
2022/05/01 09:41:14;;;;;;;9.67;4.60;;;15.60;65.80;;;;;;4176471;28;20221;-81
2022/05/01 09:43:39;;;;;;;10.50;4.67;;;15.60;64.00;;;;;;4171854;28;20283;-82
2022/05/01 09:45:41;;;;;;;14.83;5.67;;;15.70;64.10;;;;;;4174480;28;20215;-82
2022/05/01 09:47:44;;;;;;;9.30;4.87;;;15.70;63.80;;;;;;4176386;28;20251;-82
2022/05/01 09:49:49;;;;;;;10.40;4.90;;;15.80;63.50;;;;;;4179085;28;20269;-82
2022/05/01 09:51:55;;;;;;;8.53;4.93;;;15.80;62.60;;;;;;4177903;28;20215;-83
2022/05/01 09:53:58;;;;;;;9.53;5.77;;;15.90;61.70;;;;;;4178100;28;20237;-82
2022/05/01 09:56:01;;;;;;;11.13;4.87;;;16.00;62.30;;;;;;4181826;28;20236;-82
2022/05/01 09:58:09;;;;;;;11.30;5.47;;;16.00;61.60;;;;;;4179426;28;20451;-82
2022/05/01 10:00:12;;;;;;;8.63;4.60;;;16.00;59.10;;;;;;4179327;28;20215;-82
2022/05/01 10:02:14;;;;;;;8.10;4.70;;;16.10;58.50;;;;;;4176702;28;20261;-82
2022/05/01 10:04:17;;;;;;;10.43;4.50;;;16.20;60.00;;;;;;4176407;28;21011;-81
2022/05/01 10:06:21;;;;;;;9.93;4.03;;;16.40;59.80;;;;;;4177567;28;20295;-82
2022/05/01 10:08:24;;;;;;;11.10;4.67;;;16.50;59.80;;;;;;4178660;28;20260;-82
2022/05/01 10:10:25;;;;;;;10.30;5.07;;;16.60;59.00;;;;;;4179196;28;20210;-81
2022/05/01 10:12:30;;;;;;;12.10;5.50;;;16.70;57.30;;;;;;4174481;28;20311;-80
2022/05/01 10:14:32;;;;;;;13.27;5.80;;;16.80;56.70;;;;;;4178939;28;20226;-81
2022/05/01 10:16:34;;;;;;;12.50;5.83;;;16.90;56.50;;;;;;4180696;28;20818;-81
2022/05/01 10:18:36;;;;;;;7.90;5.10;;;17.00;55.70;;;;;;4180422;28;20594;-81
2022/05/01 10:20:38;;;;;;;10.03;5.33;;;17.10;54.80;;;;;;4181265;28;20240;-82
2022/05/01 10:22:42;;;;;;;8.23;5.37;;;17.20;54.10;;;;;;4181060;28;20245;-81
2022/05/01 10:24:44;;;;;;;8.10;4.97;;;17.50;53.30;;;;;;4180885;28;20218;-82
2022/05/01 10:26:52;;;;;;;12.33;5.27;;;17.50;52.40;;;;;;4187550;28;20211;-81
2022/05/01 10:29:39;;;;;;;9.03;5.40;;;17.50;52.20;;;;;;4186632;28;20205;-81
2022/05/01 10:32:22;;;;;;;7.60;4.73;;;17.70;52.00;;;;;;4184386;28;20594;-82
2022/05/01 10:34:39;;;;;;;10.90;5.10;;;17.80;51.30;;;;;;4173640;28;20225;-80
2022/05/01 10:37:05;;;;;;;8.50;4.63;;;18.00;51.10;;;;;;4176908;28;20289;-81
2022/05/01 10:39:11;;;;;;;10.40;5.03;;;18.10;51.10;;;;;;4177017;28;20210;-81
2022/05/01 10:41:17;;;;;;;8.80;4.87;;;18.30;50.70;;;;;;4180702;28;20333;-81
2022/05/01 10:43:27;;;;;;;8.50;4.83;;;18.40;50.00;;;;;;4182064;28;20235;-80
2022/05/01 10:45:44;;;;;;;7.23;4.90;;;18.60;49.40;;;;;;4181577;28;20203;-80
2022/05/01 10:47:49;;;;;;;11.03;4.73;;;18.70;48.50;;;;;;4179176;28;20216;-82
2022/05/01 10:49:51;;;;;;;9.37;5.37;;;18.80;47.90;;;;;;4177271;28;20227;-79
2022/05/01 10:51:53;;;;;;;8.90;4.93;;;18.90;48.00;;;;;;4180827;28;20734;-81
2022/05/01 10:54:33;;;;;;;10.47;5.27;;;19.30;48.30;;;;;;4174945;28;20240;-80
2022/05/01 10:56:36;;;;;;;9.67;5.20;;;19.50;46.90;;;;;;4177059;28;20257;-80
2022/05/01 10:58:38;;;;;;;9.83;5.40;;;19.70;46.00;;;;;;4177002;28;20285;-82
2022/05/01 11:00:45;;;;;;;11.30;5.30;;;20.00;45.90;;;;;;4182882;28;20236;-81
2022/05/01 11:02:48;;;;;;;10.30;6.00;;;20.20;44.70;;;;;;4174062;28;20292;-80
2022/05/01 11:04:50;;;;;;;14.03;5.47;;;20.40;44.50;;;;;;4175596;28;20300;-82
2022/05/01 11:06:52;;;;;;;8.53;4.83;;;20.60;43.60;;;;;;4183951;28;20203;-82
2022/05/01 11:08:57;;;;;;;10.00;5.37;;;20.80;43.50;;;;;;4177427;28;20211;-82